sensor_id;sensor_type;location;lat;lon;timestamp;pressure;altitude;pressure_sealevel;temperature;humidity
68873;BME280;55907;50.806;12.882;2022-07-29T00:01:51;974.9;;;17.9;45.4
68873;BME280;55907;50.806;12.882;2022-07-29T00:04:52;974.9;;;17.9;45.9
68873;BME280;55907;50.806;12.882;2022-07-29T00:07:54;974.8;;;17.9;45.8
68873;BME280;55907;50.806;12.882;2022-07-29T00:10:55;974.8;;;17.9;45.6
68873;BME280;55907;50.806;12.882;2022-07-29T00:13:57;974.8;;;17.9;45.4
68873;BME280;55907;50.806;12.882;2022-07-29T00:16:58;974.7;;;17.9;45.6
68873;BME280;55907;50.806;12.882;2022-07-29T00:19:59;974.7;;;17.9;46.1
68873;BME280;55907;50.806;12.882;2022-07-29T00:23:01;974.6;;;17.9;45.9
68873;BME280;55907;50.806;12.882;2022-07-29T00:26:02;974.6;;;17.9;46.2
68873;BME280;55907;50.806;12.882;2022-07-29T00:29:04;974.5;;;17.9;45.8
68873;BME280;55907;50.806;12.882;2022-07-29T00:32:05;974.5;;;17.8;46.5
68873;BME280;55907;50.806;12.882;2022-07-29T00:35:08;974.4;;;17.8;46.3
68873;BME280;55907;50.806;12.882;2022-07-29T00:38:08;974.4;;;17.8;46.1
68873;BME280;55907;50.806;12.882;2022-07-29T00:41:09;974.3;;;17.7;46.3
68873;BME280;55907;50.806;12.882;2022-07-29T00:44:10;974.3;;;17.7;46.3
68873;BME280;55907;50.806;12.882;2022-07-29T00:47:12;974.3;;;17.7;46.4
68873;BME280;55907;50.806;12.882;2022-07-29T00:50:14;974.3;;;17.6;47.1
68873;BME280;55907;50.806;12.882;2022-07-29T00:53:15;974.2;;;17.6;47.2
68873;BME280;55907;50.806;12.882;2022-07-29T00:56:16;974.2;;;17.5;47.1
68873;BME280;55907;50.806;12.882;2022-07-29T00:59:17;974.2;;;17.5;47.8
68873;BME280;55907;50.806;12.882;2022-07-29T01:02:19;974.2;;;17.5;47.4
68873;BME280;55907;50.806;12.882;2022-07-29T01:05:22;974.1;;;17.5;47.4
68873;BME280;55907;50.806;12.882;2022-07-29T01:08:22;974.2;;;17.5;47.9
68873;BME280;55907;50.806;12.882;2022-07-29T01:11:23;974.2;;;17.5;48.2
68873;BME280;55907;50.806;12.882;2022-07-29T01:14:25;974.2;;;17.4;48.0
68873;BME280;55907;50.806;12.882;2022-07-29T01:17:28;974.2;;;17.4;48.2
68873;BME280;55907;50.806;12.882;2022-07-29T01:20:35;974.2;;;17.4;48.5
68873;BME280;55907;50.806;12.882;2022-07-29T01:23:39;974.2;;;17.4;48.4
68873;BME280;55907;50.806;12.882;2022-07-29T01:26:35;974.1;;;17.4;49.0
68873;BME280;55907;50.806;12.882;2022-07-29T01:29:34;974.2;;;17.4;48.7
68873;BME280;55907;50.806;12.882;2022-07-29T01:32:35;974.2;;;17.3;49.2
68873;BME280;55907;50.806;12.882;2022-07-29T01:35:38;974.2;;;17.3;48.8
68873;BME280;55907;50.806;12.882;2022-07-29T01:38:38;974.1;;;17.3;49.6
68873;BME280;55907;50.806;12.882;2022-07-29T01:41:43;974.1;;;17.3;49.3
68873;BME280;55907;50.806;12.882;2022-07-29T01:44:41;974.0;;;17.3;49.6
68873;BME280;55907;50.806;12.882;2022-07-29T01:47:43;974.1;;;17.3;49.9
68873;BME280;55907;50.806;12.882;2022-07-29T01:50:47;974.0;;;17.4;49.2
68873;BME280;55907;50.806;12.882;2022-07-29T01:53:46;974.0;;;17.5;49.0
68873;BME280;55907;50.806;12.882;2022-07-29T01:56:45;973.9;;;17.5;49.2
68873;BME280;55907;50.806;12.882;2022-07-29T01:59:47;973.9;;;17.5;49.1
68873;BME280;55907;50.806;12.882;2022-07-29T02:02:48;973.9;;;17.5;49.3
68873;BME280;55907;50.806;12.882;2022-07-29T02:05:49;973.9;;;17.5;49.2
68873;BME280;55907;50.806;12.882;2022-07-29T02:08:51;973.8;;;17.5;49.3
68873;BME280;55907;50.806;12.882;2022-07-29T02:11:53;973.8;;;17.5;49.8
68873;BME280;55907;50.806;12.882;2022-07-29T02:14:54;973.8;;;17.5;50.4
68873;BME280;55907;50.806;12.882;2022-07-29T02:17:56;973.8;;;17.5;50.5
68873;BME280;55907;50.806;12.882;2022-07-29T02:20:56;973.8;;;17.5;50.7
68873;BME280;55907;50.806;12.882;2022-07-29T02:23:59;973.8;;;17.4;51.1
68873;BME280;55907;50.806;12.882;2022-07-29T02:26:59;973.8;;;17.4;51.4
68873;BME280;55907;50.806;12.882;2022-07-29T02:30:01;973.8;;;17.4;51.4
68873;BME280;55907;50.806;12.882;2022-07-29T02:33:01;973.7;;;17.3;51.6
68873;BME280;55907;50.806;12.882;2022-07-29T02:36:03;973.7;;;17.3;51.4
68873;BME280;55907;50.806;12.882;2022-07-29T02:39:04;973.7;;;17.3;51.5
68873;BME280;55907;50.806;12.882;2022-07-29T02:42:08;973.7;;;17.3;51.6
68873;BME280;55907;50.806;12.882;2022-07-29T02:45:07;973.7;;;17.2;52.3
68873;BME280;55907;50.806;12.882;2022-07-29T02:48:13;973.7;;;17.2;52.0
68873;BME280;55907;50.806;12.882;2022-07-29T02:51:13;973.7;;;17.2;51.8
68873;BME280;55907;50.806;12.882;2022-07-29T02:54:27;973.7;;;17.2;51.9
68873;BME280;55907;50.806;12.882;2022-07-29T02:57:19;973.7;;;17.2;51.8
68873;BME280;55907;50.806;12.882;2022-07-29T03:00:15;973.7;;;17.2;52.8
68873;BME280;55907;50.806;12.882;2022-07-29T03:03:16;973.7;;;17.3;52.7
68873;BME280;55907;50.806;12.882;2022-07-29T03:06:17;973.7;;;17.3;52.2
68873;BME280;55907;50.806;12.882;2022-07-29T03:09:18;973.7;;;17.3;52.7
68873;BME280;55907;50.806;12.882;2022-07-29T03:12:19;973.7;;;17.3;52.9
68873;BME280;55907;50.806;12.882;2022-07-29T03:15:21;973.7;;;17.3;52.8
68873;BME280;55907;50.806;12.882;2022-07-29T03:18:22;973.7;;;17.3;53.6
68873;BME280;55907;50.806;12.882;2022-07-29T03:21:23;973.7;;;17.2;54.5
68873;BME280;55907;50.806;12.882;2022-07-29T03:24:27;973.6;;;17.2;54.2
68873;BME280;55907;50.806;12.882;2022-07-29T03:27:26;973.6;;;17.3;54.0
68873;BME280;55907;50.806;12.882;2022-07-29T03:30:27;973.6;;;17.2;53.5
68873;BME280;55907;50.806;12.882;2022-07-29T03:33:29;973.6;;;17.2;53.9
68873;BME280;55907;50.806;12.882;2022-07-29T03:36:30;973.6;;;17.2;53.9
68873;BME280;55907;50.806;12.882;2022-07-29T03:39:34;973.5;;;17.2;53.9
68873;BME280;55907;50.806;12.882;2022-07-29T03:42:35;973.6;;;17.2;54.2
68873;BME280;55907;50.806;12.882;2022-07-29T03:45:35;973.6;;;17.2;54.3
68873;BME280;55907;50.806;12.882;2022-07-29T03:48:38;973.6;;;17.2;54.7
68873;BME280;55907;50.806;12.882;2022-07-29T03:51:38;973.6;;;17.2;54.5
68873;BME280;55907;50.806;12.882;2022-07-29T03:54:39;973.6;;;17.2;54.4
68873;BME280;55907;50.806;12.882;2022-07-29T03:57:41;973.6;;;17.2;55.2
68873;BME280;55907;50.806;12.882;2022-07-29T04:00:42;973.6;;;17.2;55.8
68873;BME280;55907;50.806;12.882;2022-07-29T04:03:43;973.6;;;17.1;56.0
68873;BME280;55907;50.806;12.882;2022-07-29T04:06:46;973.7;;;17.3;54.9
68873;BME280;55907;50.806;12.882;2022-07-29T04:09:46;973.7;;;17.3;55.1
68873;BME280;55907;50.806;12.882;2022-07-29T04:12:47;973.7;;;17.3;55.0
68873;BME280;55907;50.806;12.882;2022-07-29T04:15:49;973.7;;;17.4;55.0
68873;BME280;55907;50.806;12.882;2022-07-29T04:18:50;973.8;;;17.4;54.8
68873;BME280;55907;50.806;12.882;2022-07-29T04:21:52;973.8;;;17.4;54.8
68873;BME280;55907;50.806;12.882;2022-07-29T04:24:53;973.8;;;17.4;54.5
68873;BME280;55907;50.806;12.882;2022-07-29T04:27:54;973.8;;;17.5;54.1
68873;BME280;55907;50.806;12.882;2022-07-29T04:30:56;973.8;;;17.6;53.7
68873;BME280;55907;50.806;12.882;2022-07-29T04:33:57;973.8;;;17.7;53.8
68873;BME280;55907;50.806;12.882;2022-07-29T04:36:58;973.8;;;17.8;53.7
68873;BME280;55907;50.806;12.882;2022-07-29T04:40:00;973.8;;;17.9;53.3
68873;BME280;55907;50.806;12.882;2022-07-29T04:43:02;973.8;;;18.0;53.2
68873;BME280;55907;50.806;12.882;2022-07-29T04:46:03;973.8;;;18.0;53.1
68873;BME280;55907;50.806;12.882;2022-07-29T04:49:04;973.8;;;18.2;52.9
68873;BME280;55907;50.806;12.882;2022-07-29T04:52:06;973.7;;;18.5;52.4
68873;BME280;55907;50.806;12.882;2022-07-29T04:55:07;973.7;;;19.2;50.8
68873;BME280;55907;50.806;12.882;2022-07-29T04:58:08;973.7;;;20.2;48.8
68873;BME280;55907;50.806;12.882;2022-07-29T05:01:10;973.7;;;21.5;46.4
68873;BME280;55907;50.806;12.882;2022-07-29T05:04:11;973.7;;;22.4;44.5
68873;BME280;55907;50.806;12.882;2022-07-29T05:07:12;973.7;;;22.4;43.6
68873;BME280;55907;50.806;12.882;2022-07-29T05:10:14;973.7;;;21.8;44.0
68873;BME280;55907;50.806;12.882;2022-07-29T05:13:15;973.8;;;21.3;45.2
68873;BME280;55907;50.806;12.882;2022-07-29T05:16:17;973.8;;;21.0;45.8
68873;BME280;55907;50.806;12.882;2022-07-29T05:19:18;973.8;;;20.8;46.8
68873;BME280;55907;50.806;12.882;2022-07-29T05:22:20;973.8;;;20.6;47.7
68873;BME280;55907;50.806;12.882;2022-07-29T05:25:21;973.8;;;20.4;48.7
68873;BME280;55907;50.806;12.882;2022-07-29T05:28:22;973.8;;;20.3;49.4
68873;BME280;55907;50.806;12.882;2022-07-29T05:31:23;973.8;;;20.2;49.9
68873;BME280;55907;50.806;12.882;2022-07-29T05:34:25;973.9;;;20.2;51.2
68873;BME280;55907;50.806;12.882;2022-07-29T05:37:26;973.9;;;20.2;50.6
68873;BME280;55907;50.806;12.882;2022-07-29T05:40:28;973.8;;;20.2;50.2
68873;BME280;55907;50.806;12.882;2022-07-29T05:43:29;973.9;;;20.3;50.3
68873;BME280;55907;50.806;12.882;2022-07-29T05:46:30;973.9;;;20.4;50.9
68873;BME280;55907;50.806;12.882;2022-07-29T05:49:32;973.9;;;20.5;51.2
68873;BME280;55907;50.806;12.882;2022-07-29T05:52:33;973.9;;;20.6;50.3
68873;BME280;55907;50.806;12.882;2022-07-29T05:55:34;973.9;;;20.8;50.6
68873;BME280;55907;50.806;12.882;2022-07-29T05:58:36;973.9;;;21.0;49.9
68873;BME280;55907;50.806;12.882;2022-07-29T06:01:37;973.9;;;21.1;48.7
68873;BME280;55907;50.806;12.882;2022-07-29T06:04:39;973.8;;;21.3;48.2
68873;BME280;55907;50.806;12.882;2022-07-29T06:07:40;973.8;;;21.5;47.2
68873;BME280;55907;50.806;12.882;2022-07-29T06:10:41;973.8;;;21.6;47.3
68873;BME280;55907;50.806;12.882;2022-07-29T06:13:43;973.8;;;21.7;47.0
68873;BME280;55907;50.806;12.882;2022-07-29T06:16:44;973.8;;;22.0;46.0
68873;BME280;55907;50.806;12.882;2022-07-29T06:19:45;973.8;;;22.1;45.8
68873;BME280;55907;50.806;12.882;2022-07-29T06:22:47;973.8;;;22.1;45.7
68873;BME280;55907;50.806;12.882;2022-07-29T06:25:49;973.9;;;22.2;45.5
68873;BME280;55907;50.806;12.882;2022-07-29T06:28:49;973.9;;;22.2;46.9
68873;BME280;55907;50.806;12.882;2022-07-29T06:31:51;973.9;;;22.2;46.6
68873;BME280;55907;50.806;12.882;2022-07-29T06:34:52;973.9;;;22.2;46.6
68873;BME280;55907;50.806;12.882;2022-07-29T06:37:54;973.9;;;22.2;46.2
68873;BME280;55907;50.806;12.882;2022-07-29T06:40:55;973.9;;;22.2;45.6
68873;BME280;55907;50.806;12.882;2022-07-29T06:43:56;973.8;;;22.2;45.2
68873;BME280;55907;50.806;12.882;2022-07-29T06:46:58;973.8;;;22.1;45.3
68873;BME280;55907;50.806;12.882;2022-07-29T06:49:59;973.8;;;22.1;45.4
68873;BME280;55907;50.806;12.882;2022-07-29T06:53:00;973.9;;;22.1;45.6
68873;BME280;55907;50.806;12.882;2022-07-29T06:56:03;973.9;;;22.1;46.0
68873;BME280;55907;50.806;12.882;2022-07-29T06:59:04;973.9;;;22.1;45.9
68873;BME280;55907;50.806;12.882;2022-07-29T07:02:04;973.9;;;22.1;45.7
68873;BME280;55907;50.806;12.882;2022-07-29T07:05:06;973.9;;;22.2;45.4
68873;BME280;55907;50.806;12.882;2022-07-29T07:08:07;973.9;;;22.3;45.2
68873;BME280;55907;50.806;12.882;2022-07-29T07:11:09;973.9;;;22.3;44.9
68873;BME280;55907;50.806;12.882;2022-07-29T07:14:10;973.9;;;22.4;44.9
68873;BME280;55907;50.806;12.882;2022-07-29T07:17:11;973.9;;;22.6;43.8
68873;BME280;55907;50.806;12.882;2022-07-29T07:20:12;974.0;;;22.7;43.5
68873;BME280;55907;50.806;12.882;2022-07-29T07:23:14;974.0;;;22.7;43.0
68873;BME280;55907;50.806;12.882;2022-07-29T07:26:15;973.9;;;22.7;43.4
68873;BME280;55907;50.806;12.882;2022-07-29T07:29:17;974.0;;;22.6;43.9
68873;BME280;55907;50.806;12.882;2022-07-29T07:32:18;973.9;;;22.5;44.0
68873;BME280;55907;50.806;12.882;2022-07-29T07:35:19;973.9;;;22.4;44.5
68873;BME280;55907;50.806;12.882;2022-07-29T07:38:21;973.8;;;22.3;44.1
68873;BME280;55907;50.806;12.882;2022-07-29T07:41:22;973.8;;;22.3;43.9
68873;BME280;55907;50.806;12.882;2022-07-29T07:44:23;973.8;;;22.5;43.4
68873;BME280;55907;50.806;12.882;2022-07-29T07:47:25;973.9;;;22.7;43.0
68873;BME280;55907;50.806;12.882;2022-07-29T07:50:26;974.0;;;23.1;42.5
68873;BME280;55907;50.806;12.882;2022-07-29T07:53:27;974.0;;;23.4;42.1
68873;BME280;55907;50.806;12.882;2022-07-29T07:56:29;974.0;;;23.7;41.4
68873;BME280;55907;50.806;12.882;2022-07-29T07:59:30;974.0;;;23.8;41.4
68873;BME280;55907;50.806;12.882;2022-07-29T08:02:31;974.0;;;24.0;40.4
68873;BME280;55907;50.806;12.882;2022-07-29T08:05:33;974.0;;;24.2;40.4
68873;BME280;55907;50.806;12.882;2022-07-29T08:08:34;974.0;;;24.4;39.6
68873;BME280;55907;50.806;12.882;2022-07-29T08:11:35;974.0;;;24.8;39.8
68873;BME280;55907;50.806;12.882;2022-07-29T08:14:37;974.0;;;25.0;39.6
68873;BME280;55907;50.806;12.882;2022-07-29T08:17:38;974.0;;;25.4;38.9
68873;BME280;55907;50.806;12.882;2022-07-29T08:20:40;974.0;;;25.7;39.4
68873;BME280;55907;50.806;12.882;2022-07-29T08:23:41;973.9;;;25.8;39.2
68873;BME280;55907;50.806;12.882;2022-07-29T08:26:43;973.9;;;26.2;38.5
68873;BME280;55907;50.806;12.882;2022-07-29T08:29:43;973.9;;;26.4;37.8
68873;BME280;55907;50.806;12.882;2022-07-29T08:32:47;973.9;;;26.3;38.3
68873;BME280;55907;50.806;12.882;2022-07-29T08:35:46;973.9;;;26.2;37.8
68873;BME280;55907;50.806;12.882;2022-07-29T08:38:47;973.9;;;26.2;38.1
68873;BME280;55907;50.806;12.882;2022-07-29T08:41:49;973.9;;;26.3;38.1
68873;BME280;55907;50.806;12.882;2022-07-29T08:44:50;973.9;;;26.5;37.7
68873;BME280;55907;50.806;12.882;2022-07-29T08:47:52;973.9;;;26.7;37.2
68873;BME280;55907;50.806;12.882;2022-07-29T08:50:55;973.9;;;27.1;37.0
68873;BME280;55907;50.806;12.882;2022-07-29T08:53:54;973.9;;;27.4;35.8
68873;BME280;55907;50.806;12.882;2022-07-29T08:56:56;973.9;;;28.0;35.3
68873;BME280;55907;50.806;12.882;2022-07-29T08:59:58;973.9;;;28.8;34.1
68873;BME280;55907;50.806;12.882;2022-07-29T09:02:58;974.0;;;29.5;33.3
68873;BME280;55907;50.806;12.882;2022-07-29T09:06:00;973.9;;;30.6;30.3
68873;BME280;55907;50.806;12.882;2022-07-29T09:09:01;973.9;;;31.7;28.9
68873;BME280;55907;50.806;12.882;2022-07-29T09:12:02;973.9;;;32.7;27.8
68873;BME280;55907;50.806;12.882;2022-07-29T09:15:04;973.9;;;33.1;26.7
68873;BME280;55907;50.806;12.882;2022-07-29T09:18:04;973.9;;;33.2;26.5
68873;BME280;55907;50.806;12.882;2022-07-29T09:21:07;973.9;;;33.2;26.6
68873;BME280;55907;50.806;12.882;2022-07-29T09:24:08;974.0;;;33.4;26.5
68873;BME280;55907;50.806;12.882;2022-07-29T09:27:17;973.9;;;33.5;25.7
68873;BME280;55907;50.806;12.882;2022-07-29T09:30:13;973.9;;;33.9;25.7
68873;BME280;55907;50.806;12.882;2022-07-29T09:33:11;973.9;;;34.0;25.6
68873;BME280;55907;50.806;12.882;2022-07-29T09:36:12;973.9;;;33.7;24.7
68873;BME280;55907;50.806;12.882;2022-07-29T09:39:15;973.9;;;33.0;25.2
68873;BME280;55907;50.806;12.882;2022-07-29T09:42:28;973.9;;;32.9;25.8
68873;BME280;55907;50.806;12.882;2022-07-29T09:45:27;973.8;;;32.9;26.0
68873;BME280;55907;50.806;12.882;2022-07-29T09:48:19;973.8;;;33.3;26.2
68873;BME280;55907;50.806;12.882;2022-07-29T09:51:19;973.7;;;33.5;25.6
68873;BME280;55907;50.806;12.882;2022-07-29T09:54:21;973.6;;;33.3;25.4
68873;BME280;55907;50.806;12.882;2022-07-29T09:57:23;973.6;;;33.4;25.7
68873;BME280;55907;50.806;12.882;2022-07-29T10:00:23;973.6;;;33.5;26.4
68873;BME280;55907;50.806;12.882;2022-07-29T10:03:24;973.6;;;32.9;26.0
68873;BME280;55907;50.806;12.882;2022-07-29T10:06:25;973.6;;;32.5;26.9
68873;BME280;55907;50.806;12.882;2022-07-29T10:09:27;973.6;;;32.0;26.3
68873;BME280;55907;50.806;12.882;2022-07-29T10:12:28;973.5;;;31.9;27.5
68873;BME280;55907;50.806;12.882;2022-07-29T10:15:31;973.5;;;32.0;26.9
68873;BME280;55907;50.806;12.882;2022-07-29T10:18:31;973.5;;;32.2;25.6
68873;BME280;55907;50.806;12.882;2022-07-29T10:21:32;973.5;;;32.2;25.8
68873;BME280;55907;50.806;12.882;2022-07-29T10:24:33;973.4;;;31.9;26.6
68873;BME280;55907;50.806;12.882;2022-07-29T10:27:35;973.4;;;31.8;26.8
68873;BME280;55907;50.806;12.882;2022-07-29T10:30:37;973.4;;;31.5;28.2
68873;BME280;55907;50.806;12.882;2022-07-29T10:33:47;973.4;;;31.8;26.6
68873;BME280;55907;50.806;12.882;2022-07-29T10:36:47;973.3;;;31.8;26.3
68873;BME280;55907;50.806;12.882;2022-07-29T10:39:46;973.4;;;32.0;26.5
68873;BME280;55907;50.806;12.882;2022-07-29T10:42:42;973.3;;;31.7;26.2
68873;BME280;55907;50.806;12.882;2022-07-29T10:45:43;973.3;;;31.8;26.5
68873;BME280;55907;50.806;12.882;2022-07-29T10:51:56;973.3;;;31.3;27.0
68873;BME280;55907;50.806;12.882;2022-07-29T10:54:48;973.3;;;31.4;27.1
68873;BME280;55907;50.806;12.882;2022-07-29T11:00:50;973.3;;;32.1;26.7
68873;BME280;55907;50.806;12.882;2022-07-29T11:07:09;973.2;;;32.1;25.9
68873;BME280;55907;50.806;12.882;2022-07-29T11:12:54;973.2;;;32.2;26.4
68873;BME280;55907;50.806;12.882;2022-07-29T11:15:56;973.2;;;32.2;26.7
68873;BME280;55907;50.806;12.882;2022-07-29T11:21:58;973.2;;;32.6;26.4
68873;BME280;55907;50.806;12.882;2022-07-29T11:25:12;973.3;;;32.4;27.0
68873;BME280;55907;50.806;12.882;2022-07-29T11:28:10;973.3;;;31.8;26.3
68873;BME280;55907;50.806;12.882;2022-07-29T11:31:02;973.2;;;31.2;27.3
68873;BME280;55907;50.806;12.882;2022-07-29T11:34:17;973.2;;;31.0;27.9
68873;BME280;55907;50.806;12.882;2022-07-29T11:37:15;973.1;;;31.2;28.0
68873;BME280;55907;50.806;12.882;2022-07-29T11:40:14;973.1;;;31.2;28.0
68873;BME280;55907;50.806;12.882;2022-07-29T11:43:07;973.1;;;31.5;28.1
68873;BME280;55907;50.806;12.882;2022-07-29T11:46:09;973.1;;;31.7;28.0
68873;BME280;55907;50.806;12.882;2022-07-29T11:49:10;973.0;;;31.8;27.3
68873;BME280;55907;50.806;12.882;2022-07-29T11:52:11;973.0;;;31.6;27.8
68873;BME280;55907;50.806;12.882;2022-07-29T11:55:14;973.0;;;31.3;27.6
68873;BME280;55907;50.806;12.882;2022-07-29T11:58:14;973.0;;;31.0;27.7
68873;BME280;55907;50.806;12.882;2022-07-29T12:01:16;972.9;;;31.0;27.8
68873;BME280;55907;50.806;12.882;2022-07-29T12:04:16;972.9;;;31.0;28.1
68873;BME280;55907;50.806;12.882;2022-07-29T12:07:18;972.9;;;31.2;27.2
68873;BME280;55907;50.806;12.882;2022-07-29T12:10:19;972.9;;;31.6;28.5
68873;BME280;55907;50.806;12.882;2022-07-29T12:13:21;972.9;;;32.3;27.0
68873;BME280;55907;50.806;12.882;2022-07-29T12:16:22;972.9;;;32.9;26.1
68873;BME280;55907;50.806;12.882;2022-07-29T12:19:23;972.9;;;33.1;25.3
68873;BME280;55907;50.806;12.882;2022-07-29T12:22:25;972.8;;;32.4;25.8
68873;BME280;55907;50.806;12.882;2022-07-29T12:25:26;972.8;;;31.8;26.3
68873;BME280;55907;50.806;12.882;2022-07-29T12:28:27;972.8;;;31.5;26.7
68873;BME280;55907;50.806;12.882;2022-07-29T12:31:28;972.8;;;31.8;27.1
68873;BME280;55907;50.806;12.882;2022-07-29T12:34:30;972.9;;;31.7;26.1
68873;BME280;55907;50.806;12.882;2022-07-29T12:37:32;972.8;;;31.3;27.0
68873;BME280;55907;50.806;12.882;2022-07-29T12:40:33;972.8;;;31.0;26.8
68873;BME280;55907;50.806;12.882;2022-07-29T12:43:33;972.8;;;30.7;27.8
68873;BME280;55907;50.806;12.882;2022-07-29T12:46:35;972.8;;;31.0;27.4
68873;BME280;55907;50.806;12.882;2022-07-29T12:49:36;972.7;;;31.1;27.3
68873;BME280;55907;50.806;12.882;2022-07-29T12:55:41;972.6;;;31.0;27.5
68873;BME280;55907;50.806;12.882;2022-07-29T12:58:41;972.6;;;30.8;27.4
68873;BME280;55907;50.806;12.882;2022-07-29T13:01:42;972.7;;;30.5;28.0
68873;BME280;55907;50.806;12.882;2022-07-29T13:04:43;972.6;;;30.3;28.3
68873;BME280;55907;50.806;12.882;2022-07-29T13:07:44;972.7;;;30.0;28.6
68873;BME280;55907;50.806;12.882;2022-07-29T13:10:46;972.7;;;29.5;29.0
68873;BME280;55907;50.806;12.882;2022-07-29T13:13:49;972.8;;;29.3;29.2
68873;BME280;55907;50.806;12.882;2022-07-29T13:17:00;972.8;;;29.4;29.9
68873;BME280;55907;50.806;12.882;2022-07-29T13:19:51;972.7;;;29.4;30.1
68873;BME280;55907;50.806;12.882;2022-07-29T13:22:51;972.8;;;29.3;30.5
68873;BME280;55907;50.806;12.882;2022-07-29T13:25:52;972.8;;;29.0;30.5
68873;BME280;55907;50.806;12.882;2022-07-29T13:28:53;972.8;;;28.9;30.9
68873;BME280;55907;50.806;12.882;2022-07-29T13:31:55;972.8;;;28.9;30.6
68873;BME280;55907;50.806;12.882;2022-07-29T13:34:57;972.7;;;28.7;30.4
68873;BME280;55907;50.806;12.882;2022-07-29T13:40:59;972.7;;;28.6;30.7
68873;BME280;55907;50.806;12.882;2022-07-29T13:44:00;972.7;;;28.5;30.4
68873;BME280;55907;50.806;12.882;2022-07-29T13:47:01;972.7;;;28.4;30.6
68873;BME280;55907;50.806;12.882;2022-07-29T13:50:05;972.7;;;28.4;30.5
68873;BME280;55907;50.806;12.882;2022-07-29T13:53:04;972.7;;;28.2;31.5
68873;BME280;55907;50.806;12.882;2022-07-29T13:56:06;972.7;;;28.0;33.8
68873;BME280;55907;50.806;12.882;2022-07-29T13:59:07;972.7;;;27.5;38.9
68873;BME280;55907;50.806;12.882;2022-07-29T14:02:09;972.8;;;26.7;42.4
68873;BME280;55907;50.806;12.882;2022-07-29T14:05:10;972.8;;;26.1;43.4
68873;BME280;55907;50.806;12.882;2022-07-29T14:08:11;972.8;;;25.7;45.7
68873;BME280;55907;50.806;12.882;2022-07-29T14:11:12;972.7;;;25.2;41.2
68873;BME280;55907;50.806;12.882;2022-07-29T14:14:14;972.7;;;24.9;42.5
68873;BME280;55907;50.806;12.882;2022-07-29T14:17:15;972.7;;;24.7;45.6
68873;BME280;55907;50.806;12.882;2022-07-29T14:20:16;972.8;;;24.5;44.8
68873;BME280;55907;50.806;12.882;2022-07-29T14:23:18;972.8;;;24.5;45.2
68873;BME280;55907;50.806;12.882;2022-07-29T14:26:19;972.8;;;24.5;49.7
68873;BME280;55907;50.806;12.882;2022-07-29T14:29:20;972.8;;;24.4;52.1
68873;BME280;55907;50.806;12.882;2022-07-29T14:32:22;972.9;;;24.3;55.6
68873;BME280;55907;50.806;12.882;2022-07-29T14:35:23;972.9;;;24.3;55.3
68873;BME280;55907;50.806;12.882;2022-07-29T14:38:25;972.9;;;24.3;54.0
68873;BME280;55907;50.806;12.882;2022-07-29T14:41:26;973.0;;;24.3;47.3
68873;BME280;55907;50.806;12.882;2022-07-29T14:44:27;973.0;;;24.3;51.7
68873;BME280;55907;50.806;12.882;2022-07-29T14:47:29;973.1;;;24.4;48.5
68873;BME280;55907;50.806;12.882;2022-07-29T14:50:30;973.2;;;24.2;53.4
68873;BME280;55907;50.806;12.882;2022-07-29T14:53:31;973.4;;;24.0;54.5
68873;BME280;55907;50.806;12.882;2022-07-29T14:56:33;973.3;;;23.6;54.6
68873;BME280;55907;50.806;12.882;2022-07-29T14:59:34;973.4;;;23.0;56.2
68873;BME280;55907;50.806;12.882;2022-07-29T15:02:36;973.4;;;22.7;58.2
68873;BME280;55907;50.806;12.882;2022-07-29T15:05:37;973.5;;;22.4;60.0
68873;BME280;55907;50.806;12.882;2022-07-29T15:11:40;973.5;;;21.8;63.7
68873;BME280;55907;50.806;12.882;2022-07-29T15:14:41;973.5;;;21.7;63.9
68873;BME280;55907;50.806;12.882;2022-07-29T15:17:42;973.4;;;21.5;63.9
68873;BME280;55907;50.806;12.882;2022-07-29T15:20:44;973.3;;;21.4;64.6
68873;BME280;55907;50.806;12.882;2022-07-29T15:23:45;973.3;;;21.3;65.2
68873;BME280;55907;50.806;12.882;2022-07-29T15:26:47;973.3;;;21.1;65.9
68873;BME280;55907;50.806;12.882;2022-07-29T15:29:48;973.2;;;21.0;65.6
68873;BME280;55907;50.806;12.882;2022-07-29T15:32:49;973.1;;;21.0;66.1
68873;BME280;55907;50.806;12.882;2022-07-29T15:35:51;973.0;;;21.0;66.0
68873;BME280;55907;50.806;12.882;2022-07-29T15:38:52;972.9;;;21.0;66.5
68873;BME280;55907;50.806;12.882;2022-07-29T15:41:54;972.9;;;21.0;65.7
68873;BME280;55907;50.806;12.882;2022-07-29T15:44:55;973.0;;;21.1;65.5
68873;BME280;55907;50.806;12.882;2022-07-29T15:47:56;972.9;;;21.0;65.2
68873;BME280;55907;50.806;12.882;2022-07-29T15:50:58;972.9;;;21.0;65.0
68873;BME280;55907;50.806;12.882;2022-07-29T15:54:00;972.9;;;21.0;65.2
68873;BME280;55907;50.806;12.882;2022-07-29T15:57:01;972.8;;;21.1;64.4
68873;BME280;55907;50.806;12.882;2022-07-29T16:00:03;972.8;;;21.2;63.5
68873;BME280;55907;50.806;12.882;2022-07-29T16:03:03;972.7;;;21.4;62.9
68873;BME280;55907;50.806;12.882;2022-07-29T16:06:05;972.6;;;21.5;62.7
68873;BME280;55907;50.806;12.882;2022-07-29T16:09:06;972.5;;;21.6;62.6
68873;BME280;55907;50.806;12.882;2022-07-29T16:12:08;972.5;;;21.8;62.0
68873;BME280;55907;50.806;12.882;2022-07-29T16:15:09;972.5;;;21.8;62.2
68873;BME280;55907;50.806;12.882;2022-07-29T16:18:10;972.4;;;21.8;61.9
68873;BME280;55907;50.806;12.882;2022-07-29T16:21:12;972.4;;;21.9;61.9
68873;BME280;55907;50.806;12.882;2022-07-29T16:24:13;972.4;;;21.8;62.3
68873;BME280;55907;50.806;12.882;2022-07-29T16:27:15;972.4;;;21.9;62.3
68873;BME280;55907;50.806;12.882;2022-07-29T16:30:16;972.3;;;22.0;62.4
68873;BME280;55907;50.806;12.882;2022-07-29T16:33:17;972.3;;;22.1;61.9
68873;BME280;55907;50.806;12.882;2022-07-29T16:39:22;972.3;;;22.2;58.3
68873;BME280;55907;50.806;12.882;2022-07-29T16:42:22;972.3;;;22.3;59.5
68873;BME280;55907;50.806;12.882;2022-07-29T16:45:23;972.3;;;22.3;57.9
68873;BME280;55907;50.806;12.882;2022-07-29T16:51:26;972.2;;;22.3;57.6
68873;BME280;55907;50.806;12.882;2022-07-29T16:54:27;972.3;;;22.4;57.3
68873;BME280;55907;50.806;12.882;2022-07-29T16:57:28;972.3;;;22.4;57.7
68873;BME280;55907;50.806;12.882;2022-07-29T17:00:30;972.4;;;22.4;60.9
68873;BME280;55907;50.806;12.882;2022-07-29T17:03:31;972.4;;;22.3;60.7
68873;BME280;55907;50.806;12.882;2022-07-29T17:06:33;972.4;;;22.2;62.4
68873;BME280;55907;50.806;12.882;2022-07-29T17:09:34;972.3;;;22.1;63.7
68873;BME280;55907;50.806;12.882;2022-07-29T17:12:37;972.4;;;22.0;64.3
68873;BME280;55907;50.806;12.882;2022-07-29T17:15:37;972.4;;;22.0;63.5
68873;BME280;55907;50.806;12.882;2022-07-29T17:18:38;972.5;;;22.0;64.8
68873;BME280;55907;50.806;12.882;2022-07-29T17:21:39;972.5;;;21.9;64.4
68873;BME280;55907;50.806;12.882;2022-07-29T17:24:41;972.4;;;21.8;63.3